sensor_id;sensor_type;location;lat;lon;timestamp;P1;durP1;ratioP1;P2;durP2;ratioP2
57551;SDS011;43379;48.160;14.036;2023-02-04T00:00:02;2.47;;;1.97;;
57551;SDS011;43379;48.160;14.036;2023-02-04T00:02:31;2.50;;;2.10;;
57551;SDS011;43379;48.160;14.036;2023-02-04T00:04:57;2.90;;;2.10;;
57551;SDS011;43379;48.160;14.036;2023-02-04T00:07:23;5.47;;;2.37;;
57551;SDS011;43379;48.160;14.036;2023-02-04T00:09:49;3.87;;;1.97;;
57551;SDS011;43379;48.160;14.036;2023-02-04T00:12:15;5.00;;;2.50;;
57551;SDS011;43379;48.160;14.036;2023-02-04T00:14:41;7.27;;;2.13;;
57551;SDS011;43379;48.160;14.036;2023-02-04T00:17:07;4.83;;;2.30;;
57551;SDS011;43379;48.160;14.036;2023-02-04T00:19:34;7.63;;;3.20;;
57551;SDS011;43379;48.160;14.036;2023-02-04T00:22:00;4.83;;;2.50;;
57551;SDS011;43379;48.160;14.036;2023-02-04T00:24:27;5.27;;;2.70;;
57551;SDS011;43379;48.160;14.036;2023-02-04T00:26:54;6.57;;;3.47;;
57551;SDS011;43379;48.160;14.036;2023-02-04T00:29:20;3.90;;;3.10;;
57551;SDS011;43379;48.160;14.036;2023-02-04T00:31:46;4.63;;;2.80;;
57551;SDS011;43379;48.160;14.036;2023-02-04T00:34:11;4.30;;;2.37;;
57551;SDS011;43379;48.160;14.036;2023-02-04T00:36:37;6.80;;;2.70;;
57551;SDS011;43379;48.160;14.036;2023-02-04T00:39:03;4.90;;;2.60;;
57551;SDS011;43379;48.160;14.036;2023-02-04T00:41:28;6.07;;;3.03;;
57551;SDS011;43379;48.160;14.036;2023-02-04T00:43:54;5.40;;;2.30;;
57551;SDS011;43379;48.160;14.036;2023-02-04T00:46:20;10.73;;;3.23;;
57551;SDS011;43379;48.160;14.036;2023-02-04T00:48:45;5.90;;;3.27;;
57551;SDS011;43379;48.160;14.036;2023-02-04T00:51:11;5.33;;;2.43;;
57551;SDS011;43379;48.160;14.036;2023-02-04T00:53:36;8.03;;;3.10;;
57551;SDS011;43379;48.160;14.036;2023-02-04T00:56:02;5.27;;;2.30;;
57551;SDS011;43379;48.160;14.036;2023-02-04T00:58:28;9.90;;;2.73;;
57551;SDS011;43379;48.160;14.036;2023-02-04T01:00:53;6.03;;;2.53;;
57551;SDS011;43379;48.160;14.036;2023-02-04T01:03:19;5.87;;;2.57;;
57551;SDS011;43379;48.160;14.036;2023-02-04T01:05:45;7.63;;;2.90;;
57551;SDS011;43379;48.160;14.036;2023-02-04T01:08:10;4.90;;;2.50;;
57551;SDS011;43379;48.160;14.036;2023-02-04T01:10:36;3.60;;;2.60;;
57551;SDS011;43379;48.160;14.036;2023-02-04T01:13:02;5.17;;;3.27;;
57551;SDS011;43379;48.160;14.036;2023-02-04T01:15:27;4.10;;;2.47;;
57551;SDS011;43379;48.160;14.036;2023-02-04T01:17:53;3.50;;;2.50;;
57551;SDS011;43379;48.160;14.036;2023-02-04T01:20:19;7.40;;;3.17;;
57551;SDS011;43379;48.160;14.036;2023-02-04T01:22:45;4.70;;;2.43;;
57551;SDS011;43379;48.160;14.036;2023-02-04T01:25:11;5.10;;;3.20;;
57551;SDS011;43379;48.160;14.036;2023-02-04T01:27:36;6.73;;;2.47;;
57551;SDS011;43379;48.160;14.036;2023-02-04T01:30:03;7.13;;;2.40;;
57551;SDS011;43379;48.160;14.036;2023-02-04T01:32:30;4.70;;;2.30;;
57551;SDS011;43379;48.160;14.036;2023-02-04T01:34:55;4.50;;;2.27;;
57551;SDS011;43379;48.160;14.036;2023-02-04T01:37:21;5.63;;;2.60;;
57551;SDS011;43379;48.160;14.036;2023-02-04T01:39:46;7.37;;;3.43;;
57551;SDS011;43379;48.160;14.036;2023-02-04T01:42:12;5.60;;;3.13;;
57551;SDS011;43379;48.160;14.036;2023-02-04T01:44:38;6.97;;;3.07;;
57551;SDS011;43379;48.160;14.036;2023-02-04T01:47:04;7.63;;;2.80;;
57551;SDS011;43379;48.160;14.036;2023-02-04T01:49:30;3.43;;;2.30;;
57551;SDS011;43379;48.160;14.036;2023-02-04T01:51:55;5.13;;;2.53;;
57551;SDS011;43379;48.160;14.036;2023-02-04T01:54:22;4.67;;;2.17;;
57551;SDS011;43379;48.160;14.036;2023-02-04T01:56:47;5.77;;;2.47;;
57551;SDS011;43379;48.160;14.036;2023-02-04T01:59:16;4.40;;;2.00;;
57551;SDS011;43379;48.160;14.036;2023-02-04T02:01:44;5.07;;;2.60;;
57551;SDS011;43379;48.160;14.036;2023-02-04T02:04:13;6.77;;;3.80;;
57551;SDS011;43379;48.160;14.036;2023-02-04T02:06:50;5.53;;;2.83;;
57551;SDS011;43379;48.160;14.036;2023-02-04T02:09:19;6.73;;;2.40;;
57551;SDS011;43379;48.160;14.036;2023-02-04T02:11:45;4.60;;;2.40;;
57551;SDS011;43379;48.160;14.036;2023-02-04T02:14:11;5.67;;;2.60;;
57551;SDS011;43379;48.160;14.036;2023-02-04T02:16:37;5.43;;;2.40;;
57551;SDS011;43379;48.160;14.036;2023-02-04T02:19:03;6.10;;;2.60;;
57551;SDS011;43379;48.160;14.036;2023-02-04T02:21:38;5.40;;;3.43;;
57551;SDS011;43379;48.160;14.036;2023-02-04T02:24:24;8.13;;;3.00;;
57551;SDS011;43379;48.160;14.036;2023-02-04T02:26:54;5.37;;;2.50;;
57551;SDS011;43379;48.160;14.036;2023-02-04T02:29:22;5.00;;;2.83;;
57551;SDS011;43379;48.160;14.036;2023-02-04T02:31:48;3.50;;;2.47;;
57551;SDS011;43379;48.160;14.036;2023-02-04T02:34:14;6.93;;;3.13;;
57551;SDS011;43379;48.160;14.036;2023-02-04T02:36:40;6.20;;;3.17;;
57551;SDS011;43379;48.160;14.036;2023-02-04T02:39:06;6.80;;;3.70;;
57551;SDS011;43379;48.160;14.036;2023-02-04T02:41:33;10.70;;;3.40;;
57551;SDS011;43379;48.160;14.036;2023-02-04T02:43:59;8.53;;;2.80;;
57551;SDS011;43379;48.160;14.036;2023-02-04T02:46:25;4.23;;;2.90;;
57551;SDS011;43379;48.160;14.036;2023-02-04T02:48:51;5.60;;;3.03;;
57551;SDS011;43379;48.160;14.036;2023-02-04T02:51:17;7.53;;;2.70;;
57551;SDS011;43379;48.160;14.036;2023-02-04T02:53:43;5.30;;;3.90;;
57551;SDS011;43379;48.160;14.036;2023-02-04T02:56:10;6.07;;;3.30;;
57551;SDS011;43379;48.160;14.036;2023-02-04T02:58:36;10.27;;;5.63;;
57551;SDS011;43379;48.160;14.036;2023-02-04T03:01:05;9.53;;;2.40;;
57551;SDS011;43379;48.160;14.036;2023-02-04T03:03:34;4.77;;;3.10;;
57551;SDS011;43379;48.160;14.036;2023-02-04T03:06:12;6.27;;;3.00;;
57551;SDS011;43379;48.160;14.036;2023-02-04T03:08:45;4.77;;;2.80;;
57551;SDS011;43379;48.160;14.036;2023-02-04T03:11:12;8.67;;;3.10;;
57551;SDS011;43379;48.160;14.036;2023-02-04T03:13:38;3.57;;;3.00;;
57551;SDS011;43379;48.160;14.036;2023-02-04T03:16:04;8.53;;;3.57;;
57551;SDS011;43379;48.160;14.036;2023-02-04T03:18:32;11.60;;;3.43;;
57551;SDS011;43379;48.160;14.036;2023-02-04T03:20:58;9.60;;;2.90;;
57551;SDS011;43379;48.160;14.036;2023-02-04T03:23:24;6.20;;;3.10;;
57551;SDS011;43379;48.160;14.036;2023-02-04T03:25:51;5.90;;;2.50;;
57551;SDS011;43379;48.160;14.036;2023-02-04T03:28:17;8.83;;;2.60;;
57551;SDS011;43379;48.160;14.036;2023-02-04T03:30:43;4.03;;;2.70;;
57551;SDS011;43379;48.160;14.036;2023-02-04T03:33:20;3.87;;;2.30;;
57551;SDS011;43379;48.160;14.036;2023-02-04T03:35:56;11.97;;;3.27;;
57551;SDS011;43379;48.160;14.036;2023-02-04T03:38:22;7.63;;;2.83;;
57551;SDS011;43379;48.160;14.036;2023-02-04T03:40:48;5.43;;;3.00;;
57551;SDS011;43379;48.160;14.036;2023-02-04T03:43:14;3.40;;;1.97;;
57551;SDS011;43379;48.160;14.036;2023-02-04T03:45:39;8.03;;;3.10;;
57551;SDS011;43379;48.160;14.036;2023-02-04T03:48:05;6.50;;;2.60;;
57551;SDS011;43379;48.160;14.036;2023-02-04T03:50:30;4.83;;;2.90;;
57551;SDS011;43379;48.160;14.036;2023-02-04T03:52:56;3.07;;;2.00;;
57551;SDS011;43379;48.160;14.036;2023-02-04T03:55:22;8.20;;;2.67;;
57551;SDS011;43379;48.160;14.036;2023-02-04T03:57:47;4.30;;;2.07;;
57551;SDS011;43379;48.160;14.036;2023-02-04T04:00:13;5.57;;;2.87;;
57551;SDS011;43379;48.160;14.036;2023-02-04T04:02:39;5.67;;;2.60;;
57551;SDS011;43379;48.160;14.036;2023-02-04T04:05:06;5.47;;;2.10;;
57551;SDS011;43379;48.160;14.036;2023-02-04T04:07:33;4.60;;;2.13;;
57551;SDS011;43379;48.160;14.036;2023-02-04T04:09:58;5.47;;;2.47;;
57551;SDS011;43379;48.160;14.036;2023-02-04T04:12:24;8.17;;;3.03;;
57551;SDS011;43379;48.160;14.036;2023-02-04T04:14:49;7.70;;;3.00;;
57551;SDS011;43379;48.160;14.036;2023-02-04T04:17:15;3.43;;;2.33;;
57551;SDS011;43379;48.160;14.036;2023-02-04T04:19:41;8.07;;;2.70;;
57551;SDS011;43379;48.160;14.036;2023-02-04T04:22:08;9.53;;;2.70;;
57551;SDS011;43379;48.160;14.036;2023-02-04T04:24:34;5.80;;;2.93;;
57551;SDS011;43379;48.160;14.036;2023-02-04T04:27:00;4.63;;;2.17;;
57551;SDS011;43379;48.160;14.036;2023-02-04T04:29:25;5.37;;;2.57;;
57551;SDS011;43379;48.160;14.036;2023-02-04T04:31:51;5.07;;;2.63;;
57551;SDS011;43379;48.160;14.036;2023-02-04T04:34:17;4.27;;;2.40;;
57551;SDS011;43379;48.160;14.036;2023-02-04T04:36:42;7.00;;;2.67;;
57551;SDS011;43379;48.160;14.036;2023-02-04T04:39:08;8.50;;;3.30;;
57551;SDS011;43379;48.160;14.036;2023-02-04T04:41:33;12.00;;;3.97;;
57551;SDS011;43379;48.160;14.036;2023-02-04T04:43:59;10.57;;;2.90;;
57551;SDS011;43379;48.160;14.036;2023-02-04T04:46:25;6.30;;;2.03;;
57551;SDS011;43379;48.160;14.036;2023-02-04T04:48:50;8.40;;;3.83;;
57551;SDS011;43379;48.160;14.036;2023-02-04T04:51:16;3.47;;;2.00;;
57551;SDS011;43379;48.160;14.036;2023-02-04T04:53:42;5.97;;;2.00;;
57551;SDS011;43379;48.160;14.036;2023-02-04T04:56:07;4.70;;;2.27;;
57551;SDS011;43379;48.160;14.036;2023-02-04T04:58:33;11.57;;;2.47;;
57551;SDS011;43379;48.160;14.036;2023-02-04T05:00:59;6.73;;;2.50;;
57551;SDS011;43379;48.160;14.036;2023-02-04T05:03:24;4.63;;;2.13;;
57551;SDS011;43379;48.160;14.036;2023-02-04T05:05:50;5.60;;;2.40;;
57551;SDS011;43379;48.160;14.036;2023-02-04T05:08:15;4.20;;;2.23;;
57551;SDS011;43379;48.160;14.036;2023-02-04T05:10:43;10.07;;;3.27;;
57551;SDS011;43379;48.160;14.036;2023-02-04T05:13:09;6.50;;;2.20;;
57551;SDS011;43379;48.160;14.036;2023-02-04T05:15:35;8.40;;;2.97;;
57551;SDS011;43379;48.160;14.036;2023-02-04T05:18:01;9.53;;;2.50;;
57551;SDS011;43379;48.160;14.036;2023-02-04T05:20:26;5.37;;;2.93;;
57551;SDS011;43379;48.160;14.036;2023-02-04T05:22:52;8.97;;;2.73;;
57551;SDS011;43379;48.160;14.036;2023-02-04T05:25:20;7.87;;;2.30;;
57551;SDS011;43379;48.160;14.036;2023-02-04T05:27:46;4.00;;;2.47;;
57551;SDS011;43379;48.160;14.036;2023-02-04T05:30:13;4.90;;;2.40;;
57551;SDS011;43379;48.160;14.036;2023-02-04T05:32:39;4.90;;;2.20;;
57551;SDS011;43379;48.160;14.036;2023-02-04T05:35:05;4.47;;;2.23;;
57551;SDS011;43379;48.160;14.036;2023-02-04T05:37:31;7.27;;;2.70;;
57551;SDS011;43379;48.160;14.036;2023-02-04T05:39:57;4.90;;;2.20;;
57551;SDS011;43379;48.160;14.036;2023-02-04T05:42:23;6.50;;;2.63;;
57551;SDS011;43379;48.160;14.036;2023-02-04T05:44:48;4.73;;;3.07;;
57551;SDS011;43379;48.160;14.036;2023-02-04T05:47:14;5.80;;;2.27;;
57551;SDS011;43379;48.160;14.036;2023-02-04T05:49:40;7.10;;;2.47;;
57551;SDS011;43379;48.160;14.036;2023-02-04T05:52:05;7.40;;;2.43;;
57551;SDS011;43379;48.160;14.036;2023-02-04T05:54:31;3.40;;;2.40;;
57551;SDS011;43379;48.160;14.036;2023-02-04T05:56:57;4.90;;;2.40;;
57551;SDS011;43379;48.160;14.036;2023-02-04T05:59:23;4.93;;;2.90;;
57551;SDS011;43379;48.160;14.036;2023-02-04T06:01:48;4.30;;;2.47;;
57551;SDS011;43379;48.160;14.036;2023-02-04T06:04:14;5.20;;;3.40;;
57551;SDS011;43379;48.160;14.036;2023-02-04T06:06:40;4.07;;;2.20;;
57551;SDS011;43379;48.160;14.036;2023-02-04T06:09:09;6.30;;;2.57;;
57551;SDS011;43379;48.160;14.036;2023-02-04T06:11:35;5.23;;;2.63;;
57551;SDS011;43379;48.160;14.036;2023-02-04T06:14:00;5.30;;;3.20;;
57551;SDS011;43379;48.160;14.036;2023-02-04T06:16:26;2.87;;;2.20;;
57551;SDS011;43379;48.160;14.036;2023-02-04T06:18:52;10.97;;;2.47;;
57551;SDS011;43379;48.160;14.036;2023-02-04T06:21:18;5.40;;;2.70;;
57551;SDS011;43379;48.160;14.036;2023-02-04T06:23:43;8.37;;;2.73;;
57551;SDS011;43379;48.160;14.036;2023-02-04T06:26:09;4.33;;;2.63;;
57551;SDS011;43379;48.160;14.036;2023-02-04T06:28:35;3.47;;;2.43;;
57551;SDS011;43379;48.160;14.036;2023-02-04T06:31:01;7.97;;;4.63;;
57551;SDS011;43379;48.160;14.036;2023-02-04T06:33:27;3.80;;;2.73;;
57551;SDS011;43379;48.160;14.036;2023-02-04T06:35:53;6.60;;;3.17;;
57551;SDS011;43379;48.160;14.036;2023-02-04T06:38:18;6.67;;;2.43;;
57551;SDS011;43379;48.160;14.036;2023-02-04T06:40:44;4.70;;;2.60;;
57551;SDS011;43379;48.160;14.036;2023-02-04T06:43:13;5.20;;;3.00;;
57551;SDS011;43379;48.160;14.036;2023-02-04T06:45:39;7.30;;;2.50;;
57551;SDS011;43379;48.160;14.036;2023-02-04T06:48:05;4.50;;;2.57;;
57551;SDS011;43379;48.160;14.036;2023-02-04T06:50:31;3.43;;;2.30;;
57551;SDS011;43379;48.160;14.036;2023-02-04T06:52:56;11.20;;;3.10;;
57551;SDS011;43379;48.160;14.036;2023-02-04T06:55:22;2.90;;;1.60;;
57551;SDS011;43379;48.160;14.036;2023-02-04T06:57:48;2.33;;;1.73;;
57551;SDS011;43379;48.160;14.036;2023-02-04T07:00:13;1.47;;;1.37;;
57551;SDS011;43379;48.160;14.036;2023-02-04T07:02:39;2.77;;;1.40;;
57551;SDS011;43379;48.160;14.036;2023-02-04T07:05:06;3.70;;;1.60;;
57551;SDS011;43379;48.160;14.036;2023-02-04T07:07:32;1.63;;;1.27;;
57551;SDS011;43379;48.160;14.036;2023-02-04T07:09:58;1.67;;;1.47;;
57551;SDS011;43379;48.160;14.036;2023-02-04T07:12:24;2.17;;;2.00;;
57551;SDS011;43379;48.160;14.036;2023-02-04T07:14:50;1.83;;;1.67;;
57551;SDS011;43379;48.160;14.036;2023-02-04T07:17:16;1.27;;;1.17;;
57551;SDS011;43379;48.160;14.036;2023-02-04T07:19:41;1.83;;;1.70;;
57551;SDS011;43379;48.160;14.036;2023-02-04T07:22:07;1.83;;;1.73;;
57551;SDS011;43379;48.160;14.036;2023-02-04T07:24:32;1.87;;;1.77;;
57551;SDS011;43379;48.160;14.036;2023-02-04T07:26:58;1.80;;;1.70;;
57551;SDS011;43379;48.160;14.036;2023-02-04T07:29:24;1.60;;;1.50;;
57551;SDS011;43379;48.160;14.036;2023-02-04T07:31:50;1.40;;;1.30;;
57551;SDS011;43379;48.160;14.036;2023-02-04T07:34:16;2.20;;;1.90;;
57551;SDS011;43379;48.160;14.036;2023-02-04T07:36:42;2.00;;;1.90;;
57551;SDS011;43379;48.160;14.036;2023-02-04T07:39:08;1.80;;;1.70;;
57551;SDS011;43379;48.160;14.036;2023-02-04T07:41:34;1.70;;;1.60;;
57551;SDS011;43379;48.160;14.036;2023-02-04T07:44:01;1.93;;;1.60;;
57551;SDS011;43379;48.160;14.036;2023-02-04T07:46:27;1.80;;;1.50;;
57551;SDS011;43379;48.160;14.036;2023-02-04T07:48:53;1.73;;;1.40;;
57551;SDS011;43379;48.160;14.036;2023-02-04T07:51:19;2.20;;;1.50;;
57551;SDS011;43379;48.160;14.036;2023-02-04T07:53:45;1.70;;;1.60;;
57551;SDS011;43379;48.160;14.036;2023-02-04T07:56:11;2.60;;;1.20;;
57551;SDS011;43379;48.160;14.036;2023-02-04T07:58:36;1.90;;;1.60;;
57551;SDS011;43379;48.160;14.036;2023-02-04T08:01:02;1.67;;;1.57;;
57551;SDS011;43379;48.160;14.036;2023-02-04T08:03:28;1.40;;;1.30;;
57551;SDS011;43379;48.160;14.036;2023-02-04T08:05:53;1.53;;;1.40;;
57551;SDS011;43379;48.160;14.036;2023-02-04T08:08:20;2.93;;;1.67;;
57551;SDS011;43379;48.160;14.036;2023-02-04T08:10:46;1.47;;;1.37;;
57551;SDS011;43379;48.160;14.036;2023-02-04T08:13:12;1.50;;;1.40;;
57551;SDS011;43379;48.160;14.036;2023-02-04T08:15:37;1.50;;;1.40;;
57551;SDS011;43379;48.160;14.036;2023-02-04T08:18:03;1.23;;;1.13;;
57551;SDS011;43379;48.160;14.036;2023-02-04T08:20:29;1.87;;;1.77;;
57551;SDS011;43379;48.160;14.036;2023-02-04T08:22:55;4.97;;;2.07;;
57551;SDS011;43379;48.160;14.036;2023-02-04T08:25:21;2.80;;;1.90;;
57551;SDS011;43379;48.160;14.036;2023-02-04T08:27:47;2.53;;;2.27;;
57551;SDS011;43379;48.160;14.036;2023-02-04T08:30:12;2.30;;;2.10;;
57551;SDS011;43379;48.160;14.036;2023-02-04T08:32:38;2.07;;;1.90;;
57551;SDS011;43379;48.160;14.036;2023-02-04T08:35:05;2.70;;;2.00;;
57551;SDS011;43379;48.160;14.036;2023-02-04T08:37:31;3.23;;;2.10;;
57551;SDS011;43379;48.160;14.036;2023-02-04T08:39:57;2.60;;;2.00;;
57551;SDS011;43379;48.160;14.036;2023-02-04T08:42:22;2.20;;;1.87;;
57551;SDS011;43379;48.160;14.036;2023-02-04T08:44:48;1.83;;;1.53;;
57551;SDS011;43379;48.160;14.036;2023-02-04T08:47:14;1.80;;;1.50;;
57551;SDS011;43379;48.160;14.036;2023-02-04T08:49:39;1.50;;;1.40;;
57551;SDS011;43379;48.160;14.036;2023-02-04T08:52:05;2.53;;;1.57;;
57551;SDS011;43379;48.160;14.036;2023-02-04T08:54:32;2.30;;;1.60;;
57551;SDS011;43379;48.160;14.036;2023-02-04T08:56:58;1.60;;;1.40;;
57551;SDS011;43379;48.160;14.036;2023-02-04T08:59:23;1.67;;;1.47;;
57551;SDS011;43379;48.160;14.036;2023-02-04T09:01:50;2.17;;;1.37;;
57551;SDS011;43379;48.160;14.036;2023-02-04T09:04:20;2.40;;;1.47;;
57551;SDS011;43379;48.160;14.036;2023-02-04T09:06:47;1.80;;;1.30;;
57551;SDS011;43379;48.160;14.036;2023-02-04T09:09:13;2.03;;;1.40;;
57551;SDS011;43379;48.160;14.036;2023-02-04T09:11:40;1.50;;;1.37;;
57551;SDS011;43379;48.160;14.036;2023-02-04T09:14:06;1.83;;;1.37;;
57551;SDS011;43379;48.160;14.036;2023-02-04T09:16:32;2.13;;;1.50;;
57551;SDS011;43379;48.160;14.036;2023-02-04T09:18:58;1.70;;;1.30;;
57551;SDS011;43379;48.160;14.036;2023-02-04T09:21:24;1.63;;;1.43;;
57551;SDS011;43379;48.160;14.036;2023-02-04T09:23:50;1.97;;;1.40;;
57551;SDS011;43379;48.160;14.036;2023-02-04T09:26:16;1.57;;;1.30;;
57551;SDS011;43379;48.160;14.036;2023-02-04T09:28:42;1.20;;;1.10;;
57551;SDS011;43379;48.160;14.036;2023-02-04T09:31:07;1.50;;;1.23;;
57551;SDS011;43379;48.160;14.036;2023-02-04T09:33:34;1.83;;;1.10;;
57551;SDS011;43379;48.160;14.036;2023-02-04T09:36:00;2.37;;;1.30;;
57551;SDS011;43379;48.160;14.036;2023-02-04T09:38:26;2.67;;;1.30;;
57551;SDS011;43379;48.160;14.036;2023-02-04T09:40:52;1.20;;;1.10;;
57551;SDS011;43379;48.160;14.036;2023-02-04T09:43:21;1.67;;;1.57;;
57551;SDS011;43379;48.160;14.036;2023-02-04T09:45:53;1.67;;;1.57;;
57551;SDS011;43379;48.160;14.036;2023-02-04T09:48:21;1.73;;;1.63;;
57551;SDS011;43379;48.160;14.036;2023-02-04T09:50:48;1.80;;;1.70;;
57551;SDS011;43379;48.160;14.036;2023-02-04T09:53:16;1.97;;;1.77;;
57551;SDS011;43379;48.160;14.036;2023-02-04T09:55:48;2.00;;;1.90;;
57551;SDS011;43379;48.160;14.036;2023-02-04T09:58:16;2.60;;;2.40;;
57551;SDS011;43379;48.160;14.036;2023-02-04T10:00:48;2.17;;;2.07;;
57551;SDS011;43379;48.160;14.036;2023-02-04T10:03:24;1.87;;;1.77;;
57551;SDS011;43379;48.160;14.036;2023-02-04T10:05:50;2.30;;;2.13;;
57551;SDS011;43379;48.160;14.036;2023-02-04T10:08:17;2.33;;;2.13;;
57551;SDS011;43379;48.160;14.036;2023-02-04T10:10:45;2.00;;;1.90;;
57551;SDS011;43379;48.160;14.036;2023-02-04T10:13:17;2.40;;;2.20;;
57551;SDS011;43379;48.160;14.036;2023-02-04T10:15:55;2.27;;;2.07;;
57551;SDS011;43379;48.160;14.036;2023-02-04T10:18:24;2.47;;;2.27;;
57551;SDS011;43379;48.160;14.036;2023-02-04T10:21:12;2.37;;;2.17;;
57551;SDS011;43379;48.160;14.036;2023-02-04T10:23:41;2.20;;;2.00;;
57551;SDS011;43379;48.160;14.036;2023-02-04T10:26:13;2.57;;;2.47;;
57551;SDS011;43379;48.160;14.036;2023-02-04T10:28:40;3.30;;;2.40;;
57551;SDS011;43379;48.160;14.036;2023-02-04T10:31:28;2.80;;;2.60;;
57551;SDS011;43379;48.160;14.036;2023-02-04T10:36:35;2.70;;;2.50;;
57551;SDS011;43379;48.160;14.036;2023-02-04T10:39:02;2.00;;;1.90;;
57551;SDS011;43379;48.160;14.036;2023-02-04T10:41:30;3.97;;;3.23;;
57551;SDS011;43379;48.160;14.036;2023-02-04T10:44:08;2.63;;;2.43;;
57551;SDS011;43379;48.160;14.036;2023-02-04T10:46:35;3.40;;;2.70;;
57551;SDS011;43379;48.160;14.036;2023-02-04T10:49:03;3.00;;;2.77;;
57551;SDS011;43379;48.160;14.036;2023-02-04T10:51:29;2.57;;;2.37;;
57551;SDS011;43379;48.160;14.036;2023-02-04T10:53:55;2.63;;;2.43;;
57551;SDS011;43379;48.160;14.036;2023-02-04T10:56:39;3.80;;;2.90;;
57551;SDS011;43379;48.160;14.036;2023-02-04T10:59:08;7.37;;;2.70;;
57551;SDS011;43379;48.160;14.036;2023-02-04T11:01:44;3.23;;;2.93;;
57551;SDS011;43379;48.160;14.036;2023-02-04T11:04:10;2.17;;;2.07;;
57551;SDS011;43379;48.160;14.036;2023-02-04T11:06:36;1.90;;;1.70;;
57551;SDS011;43379;48.160;14.036;2023-02-04T11:09:02;1.70;;;1.60;;
57551;SDS011;43379;48.160;14.036;2023-02-04T11:11:28;4.90;;;2.87;;
57551;SDS011;43379;48.160;14.036;2023-02-04T11:16:24;2.73;;;2.40;;
57551;SDS011;43379;48.160;14.036;2023-02-04T11:18:56;4.13;;;2.93;;
57551;SDS011;43379;48.160;14.036;2023-02-04T11:21:40;2.73;;;2.47;;
57551;SDS011;43379;48.160;14.036;2023-02-04T11:29:23;2.60;;;2.37;;
57551;SDS011;43379;48.160;14.036;2023-02-04T11:34:52;2.77;;;2.57;;
57551;SDS011;43379;48.160;14.036;2023-02-04T11:39:59;2.73;;;2.13;;
57551;SDS011;43379;48.160;14.036;2023-02-04T11:42:28;3.30;;;3.07;;
57551;SDS011;43379;48.160;14.036;2023-02-04T11:45:21;3.30;;;2.50;;
57551;SDS011;43379;48.160;14.036;2023-02-04T11:47:50;2.27;;;2.17;;
57551;SDS011;43379;48.160;14.036;2023-02-04T11:50:19;2.30;;;2.10;;
57551;SDS011;43379;48.160;14.036;2023-02-04T11:52:49;1.93;;;1.83;;
57551;SDS011;43379;48.160;14.036;2023-02-04T11:55:15;2.10;;;1.90;;
57551;SDS011;43379;48.160;14.036;2023-02-04T11:57:41;2.00;;;1.90;;
57551;SDS011;43379;48.160;14.036;2023-02-04T12:00:18;3.10;;;2.30;;
57551;SDS011;43379;48.160;14.036;2023-02-04T12:02:46;2.57;;;2.37;;
57551;SDS011;43379;48.160;14.036;2023-02-04T12:05:15;2.20;;;2.00;;
57551;SDS011;43379;48.160;14.036;2023-02-04T12:07:42;2.53;;;2.33;;
57551;SDS011;43379;48.160;14.036;2023-02-04T12:10:14;3.43;;;2.17;;
57551;SDS011;43379;48.160;14.036;2023-02-04T12:12:50;2.63;;;1.70;;
57551;SDS011;43379;48.160;14.036;2023-02-04T12:15:21;1.90;;;1.80;;
57551;SDS011;43379;48.160;14.036;2023-02-04T12:18:05;2.30;;;2.20;;
57551;SDS011;43379;48.160;14.036;2023-02-04T12:20:33;2.70;;;2.10;;
57551;SDS011;43379;48.160;14.036;2023-02-04T12:22:59;2.27;;;2.17;;
57551;SDS011;43379;48.160;14.036;2023-02-04T12:25:25;2.00;;;1.90;;
57551;SDS011;43379;48.160;14.036;2023-02-04T12:27:52;2.23;;;2.03;;
57551;SDS011;43379;48.160;14.036;2023-02-04T12:30:19;2.20;;;2.00;;
57551;SDS011;43379;48.160;14.036;2023-02-04T12:32:46;2.07;;;1.97;;
57551;SDS011;43379;48.160;14.036;2023-02-04T12:35:12;2.60;;;2.17;;
57551;SDS011;43379;48.160;14.036;2023-02-04T12:37:38;2.70;;;2.27;;
57551;SDS011;43379;48.160;14.036;2023-02-04T12:40:04;3.03;;;2.37;;
57551;SDS011;43379;48.160;14.036;2023-02-04T12:42:30;2.47;;;2.10;;
57551;SDS011;43379;48.160;14.036;2023-02-04T12:44:55;2.53;;;2.33;;
57551;SDS011;43379;48.160;14.036;2023-02-04T12:47:21;3.00;;;2.67;;
57551;SDS011;43379;48.160;14.036;2023-02-04T12:49:47;2.40;;;2.20;;
57551;SDS011;43379;48.160;14.036;2023-02-04T12:52:13;2.07;;;1.97;;
57551;SDS011;43379;48.160;14.036;2023-02-04T12:54:39;2.47;;;2.30;;
57551;SDS011;43379;48.160;14.036;2023-02-04T12:57:04;2.40;;;2.00;;
57551;SDS011;43379;48.160;14.036;2023-02-04T12:59:30;1.93;;;1.70;;
57551;SDS011;43379;48.160;14.036;2023-02-04T13:01:56;2.70;;;2.37;;
57551;SDS011;43379;48.160;14.036;2023-02-04T13:04:22;2.03;;;1.93;;
57551;SDS011;43379;48.160;14.036;2023-02-04T13:06:48;1.93;;;1.83;;
57551;SDS011;43379;48.160;14.036;2023-02-04T13:09:14;2.37;;;2.17;;
57551;SDS011;43379;48.160;14.036;2023-02-04T13:11:39;1.60;;;1.50;;
57551;SDS011;43379;48.160;14.036;2023-02-04T13:14:05;2.00;;;1.90;;
57551;SDS011;43379;48.160;14.036;2023-02-04T13:16:31;1.50;;;1.40;;
57551;SDS011;43379;48.160;14.036;2023-02-04T13:18:56;1.90;;;1.50;;
57551;SDS011;43379;48.160;14.036;2023-02-04T13:21:22;2.10;;;1.80;;
57551;SDS011;43379;48.160;14.036;2023-02-04T13:23:48;2.13;;;1.27;;
57551;SDS011;43379;48.160;14.036;2023-02-04T13:26:13;1.53;;;1.43;;
57551;SDS011;43379;48.160;14.036;2023-02-04T13:28:39;1.87;;;1.77;;
57551;SDS011;43379;48.160;14.036;2023-02-04T13:31:05;1.70;;;1.60;;
57551;SDS011;43379;48.160;14.036;2023-02-04T13:33:31;1.57;;;1.47;;
57551;SDS011;43379;48.160;14.036;2023-02-04T13:35:57;1.40;;;1.30;;
57551;SDS011;43379;48.160;14.036;2023-02-04T13:38:22;1.90;;;1.70;;
57551;SDS011;43379;48.160;14.036;2023-02-04T13:40:49;1.60;;;1.50;;
57551;SDS011;43379;48.160;14.036;2023-02-04T13:43:15;1.77;;;1.67;;
57551;SDS011;43379;48.160;14.036;2023-02-04T13:45:40;1.60;;;1.50;;
57551;SDS011;43379;48.160;14.036;2023-02-04T13:48:11;1.57;;;1.47;;
57551;SDS011;43379;48.160;14.036;2023-02-04T13:50:38;1.30;;;1.20;;
57551;SDS011;43379;48.160;14.036;2023-02-04T13:53:03;1.70;;;1.60;;
57551;SDS011;43379;48.160;14.036;2023-02-04T13:55:29;1.90;;;1.80;;
57551;SDS011;43379;48.160;14.036;2023-02-04T13:57:55;1.37;;;1.27;;
57551;SDS011;43379;48.160;14.036;2023-02-04T14:00:21;1.87;;;1.77;;
57551;SDS011;43379;48.160;14.036;2023-02-04T14:02:46;2.00;;;1.90;;
57551;SDS011;43379;48.160;14.036;2023-02-04T14:05:13;1.80;;;1.70;;
57551;SDS011;43379;48.160;14.036;2023-02-04T14:07:39;1.50;;;1.40;;
57551;SDS011;43379;48.160;14.036;2023-02-04T14:10:05;1.77;;;1.50;;
57551;SDS011;43379;48.160;14.036;2023-02-04T14:12:31;3.20;;;1.83;;
57551;SDS011;43379;48.160;14.036;2023-02-04T14:14:57;1.53;;;1.20;;
57551;SDS011;43379;48.160;14.036;2023-02-04T14:17:22;1.30;;;1.20;;
57551;SDS011;43379;48.160;14.036;2023-02-04T14:19:48;1.83;;;1.73;;
57551;SDS011;43379;48.160;14.036;2023-02-04T14:22:14;2.03;;;1.60;;
57551;SDS011;43379;48.160;14.036;2023-02-04T14:24:39;1.70;;;1.60;;
57551;SDS011;43379;48.160;14.036;2023-02-04T14:27:06;1.20;;;1.10;;
57551;SDS011;43379;48.160;14.036;2023-02-04T14:29:33;1.90;;;1.80;;
57551;SDS011;43379;48.160;14.036;2023-02-04T14:31:59;1.53;;;1.43;;
57551;SDS011;43379;48.160;14.036;2023-02-04T14:34:25;1.77;;;1.67;;
57551;SDS011;43379;48.160;14.036;2023-02-04T14:36:51;1.60;;;1.50;;
57551;SDS011;43379;48.160;14.036;2023-02-04T14:39:16;1.70;;;1.60;;
57551;SDS011;43379;48.160;14.036;2023-02-04T14:41:42;1.83;;;1.73;;
57551;SDS011;43379;48.160;14.036;2023-02-04T14:44:08;2.30;;;1.57;;
57551;SDS011;43379;48.160;14.036;2023-02-04T14:46:34;1.83;;;1.73;;